Terminal Aerodrome Forecast
Issued by NWS Louisville, KY

Home | Current Version | Previous Version | Text Only | Print | Product List | Glossary On
Versions: 1 2 3 4 5 6 7 8 9 10 11 12 13 14 15 16 17 18 19 20 21 22
721
FTUS43 KLMK 232325
TAFSDF
TAF
KSDF 232325Z 2400/2506 31007KT P6SM SCT025 BKN100
     FM240300 VRB05KT P6SM BKN015
     FM240800 VRB04KT P6SM OVC008
     FM241100 VRB05KT 3SM SHRA OVC008
     FM242000 17006KT 3SM SHRA OVC015=

USA.gov is the U.S. government's official web portal to all federal, state and local government web resources and services.